createdAt,value
2018-08-18T00:00:18.830Z,99827.75
2018-08-18T00:02:47.888Z,99836.45
2018-08-18T00:05:17.831Z,99841.33
2018-08-18T00:07:46.864Z,99847.05
2018-08-18T00:10:18.440Z,99854.34
2018-08-18T00:12:47.541Z,99849.34
2018-08-18T00:15:16.475Z,99853.12
2018-08-18T00:17:45.415Z,99849.11
2018-08-18T00:20:17.063Z,99852.14
2018-08-18T00:22:46.420Z,99860.94
2018-08-18T00:25:15.385Z,99852.23
2018-08-18T00:27:44.373Z,99852.77
2018-08-18T00:30:18.586Z,99850.88
2018-08-18T00:32:47.627Z,99847.06
2018-08-18T00:35:16.580Z,99851.75
2018-08-18T00:37:45.765Z,99845.25
2018-08-18T00:40:14.806Z,99839.80
2018-08-18T00:42:43.785Z,99833.83
2018-08-18T00:45:13.744Z,99836.55
2018-08-18T00:47:42.880Z,99835.19
2018-08-18T00:50:16.136Z,99836.33
2018-08-18T00:52:45.808Z,99833.19
2018-08-18T00:55:14.740Z,99836.63
2018-08-18T00:57:43.721Z,99833.30
2018-08-18T01:00:12.688Z,99834.81
2018-08-18T01:02:41.631Z,99835.90
2018-08-18T01:05:10.603Z,99828.78
2018-08-18T01:07:39.652Z,99829.54
2018-08-18T01:10:08.668Z,99832.48
2018-08-18T01:12:37.712Z,99830.83
2018-08-18T01:15:09.041Z,99837.10
2018-08-18T01:17:38.008Z,99832.63
2018-08-18T01:20:07.471Z,99832.41
2018-08-18T01:22:36.427Z,99838.23
2018-08-18T01:25:05.897Z,99837.41
2018-08-18T01:27:43.684Z,99826.52
2018-08-18T01:30:12.684Z,99832.57
2018-08-18T01:32:41.616Z,99824.40
2018-08-18T01:35:11.254Z,99823.80
2018-08-18T01:37:40.251Z,99822.73
2018-08-18T01:40:09.317Z,99828.33
2018-08-18T01:42:38.247Z,99827.34
2018-08-18T01:45:07.357Z,99825.45
2018-08-18T01:47:36.312Z,99820.84
2018-08-18T01:50:10.475Z,99812.45
2018-08-18T01:52:39.408Z,99823.34
2018-08-18T01:55:09.064Z,99809.73
2018-08-18T01:57:38.008Z,99812.45
2018-08-18T02:00:28.241Z,99807.84
2018-08-18T02:02:57.203Z,99805.64
2018-08-18T02:05:27.472Z,99809.42
2018-08-18T02:07:56.488Z,99810.55
2018-08-18T02:10:25.509Z,99806.39
2018-08-18T02:13:01.932Z,99813.51
2018-08-18T02:15:31.273Z,99812.90
2018-08-18T02:18:00.294Z,99804.43
2018-08-18T02:20:29.243Z,99806.09
2018-08-18T02:22:58.317Z,99807.45
2018-08-18T02:25:27.252Z,99808.81
2018-08-18T02:27:56.176Z,99811.31
2018-08-18T02:30:25.184Z,99813.20
2018-08-18T02:32:54.195Z,99818.34
2018-08-18T02:35:24.197Z,99817.73
2018-08-18T02:37:53.305Z,99822.53
2018-08-18T02:40:22.321Z,99827.45
2018-08-18T02:42:51.332Z,99827.89
2018-08-18T02:45:20.287Z,99825.31
2018-08-18T02:47:53.788Z,99831.77
2018-08-18T02:50:22.728Z,99837.44
2018-08-18T02:52:51.667Z,99834.86
2018-08-18T02:55:20.617Z,99831.92
2018-08-18T02:57:49.616Z,99825.44
2018-08-18T03:00:24.937Z,99829.12
2018-08-18T03:02:53.993Z,99829.60
2018-08-18T03:05:22.996Z,99834.44
2018-08-18T03:07:52.944Z,99841.68
2018-08-18T03:10:26.942Z,99839.13
2018-08-18T03:12:58.088Z,99837.46
2018-08-18T03:16:06.384Z,99845.02
2018-08-18T03:18:47.641Z,99846.90
2018-08-18T03:21:16.976Z,99858.75
2018-08-18T03:23:57.620Z,99866.91
2018-08-18T03:26:30.672Z,99877.05
2018-08-18T03:28:59.737Z,99882.78
2018-08-18T03:31:28.756Z,99884.23
2018-08-18T03:33:57.681Z,99888.83
2018-08-18T03:36:37.919Z,99892.30
2018-08-18T03:39:09.897Z,99885.28
2018-08-18T03:41:38.849Z,99889.14
2018-08-18T03:44:07.850Z,99887.78
2018-08-18T03:46:36.801Z,99888.84
2018-08-18T03:49:05.777Z,99894.43
2018-08-18T03:51:39.744Z,99903.66
2018-08-18T03:54:08.696Z,99891.19
2018-08-18T03:56:37.754Z,99899.66
2018-08-18T03:59:06.720Z,99901.23
2018-08-18T04:01:53.240Z,99904.27
2018-08-18T04:04:23.385Z,99906.14
2018-08-18T04:06:53.753Z,99915.47
2018-08-18T04:09:26.985Z,99915.16
2018-08-18T04:11:57.585Z,99920.15
2018-08-18T04:14:31.593Z,99920.13
2018-08-18T04:17:00.649Z,99920.64
2018-08-18T04:19:29.672Z,99922.77
2018-08-18T04:21:58.659Z,99922.96
2018-08-18T04:24:34.060Z,99929.75
2018-08-18T04:27:03.382Z,99930.28
2018-08-18T04:29:32.460Z,99933.39
2018-08-18T04:32:02.214Z,99937.89
2018-08-18T04:34:31.168Z,99938.94
2018-08-18T04:37:02.141Z,99947.79
2018-08-18T04:39:31.089Z,99951.02
2018-08-18T04:42:00.167Z,99957.09
2018-08-18T04:44:29.171Z,99932.55
2018-08-18T04:46:58.220Z,99955.28
2018-08-18T04:49:27.249Z,99961.48
2018-08-18T04:51:56.200Z,99962.16
2018-08-18T04:54:25.224Z,99970.16
2018-08-18T04:56:54.297Z,99977.17
2018-08-18T04:59:24.394Z,99978.00
2018-08-18T05:01:53.344Z,99985.68
2018-08-18T05:04:22.376Z,99980.38
2018-08-18T05:06:51.413Z,99978.27
2018-08-18T05:09:20.426Z,99983.97
2018-08-18T05:11:49.498Z,99983.47
2018-08-18T05:14:18.501Z,99977.39
2018-08-18T05:16:47.580Z,99953.70
2018-08-18T05:19:16.647Z,99983.51
2018-08-18T05:21:45.464Z,99989.47
2018-08-18T05:24:22.628Z,99985.00
2018-08-18T05:26:52.644Z,99990.49
2018-08-18T05:29:21.870Z,99986.73
2018-08-18T05:31:50.888Z,99988.80
2018-08-18T05:34:19.922Z,99987.73
2018-08-18T05:36:48.922Z,99993.89
2018-08-18T05:39:17.905Z,99993.78
2018-08-18T05:41:46.916Z,99994.26
2018-08-18T05:44:15.848Z,99993.00
2018-08-18T05:46:44.856Z,99994.44
2018-08-18T05:49:15.584Z,99993.02
2018-08-18T05:51:46.881Z,99991.31
2018-08-18T05:54:17.720Z,99990.22
2018-08-18T05:56:47.184Z,99999.41
2018-08-18T05:59:16.148Z,99986.09
2018-08-18T06:01:45.217Z,99993.92
2018-08-18T06:04:15.495Z,99997.42
2018-08-18T06:06:45.580Z,99998.42
2018-08-18T06:09:16.695Z,99994.11
2018-08-18T06:11:45.664Z,99999.27
2018-08-18T06:14:15.099Z,99992.87
2018-08-18T06:16:44.383Z,99993.86
2018-08-18T06:19:13.387Z,99991.78
2018-08-18T06:21:42.334Z,99998.66
2018-08-18T06:24:11.700Z,99996.55
2018-08-18T06:26:40.712Z,100002.56
2018-08-18T06:29:09.785Z,100010.02
2018-08-18T06:31:54.946Z,100013.31
2018-08-18T06:34:24.212Z,100018.44
2018-08-18T06:36:53.219Z,100015.30
2018-08-18T06:39:22.184Z,100012.51
2018-08-18T06:41:51.299Z,100013.75
2018-08-18T06:44:24.714Z,100013.28
2018-08-18T06:46:53.728Z,100013.37
2018-08-18T06:49:22.748Z,100014.88
2018-08-18T06:51:51.845Z,100011.78
2018-08-18T06:54:20.971Z,100012.06
2018-08-18T06:56:49.926Z,100015.42
2018-08-18T06:59:18.900Z,100018.73
2018-08-18T07:01:47.927Z,100018.91
2018-08-18T07:04:25.709Z,100014.06
2018-08-18T07:06:54.752Z,100014.29
2018-08-18T07:09:23.707Z,100006.28
2018-08-18T07:11:52.768Z,100005.44
2018-08-18T07:14:21.726Z,100005.13
2018-08-18T07:16:50.660Z,100000.48
2018-08-18T07:19:19.725Z,100002.69
2018-08-18T07:21:48.736Z,100002.23
2018-08-18T07:24:17.812Z,100005.01
2018-08-18T07:26:46.768Z,100013.47
2018-08-18T07:29:15.764Z,100009.43
2018-08-18T07:31:44.784Z,100005.55
2018-08-18T07:34:13.842Z,100009.56
2018-08-18T07:36:42.804Z,100008.80
2018-08-18T07:39:11.881Z,100002.81
2018-08-18T07:41:40.992Z,100004.08
2018-08-18T07:44:09.984Z,99997.70
2018-08-18T07:46:39.045Z,99993.37
2018-08-18T07:49:08.079Z,99997.42
2018-08-18T07:51:37.076Z,99995.25
2018-08-18T07:54:06.083Z,99988.86
2018-08-18T07:56:35.076Z,99987.81
2018-08-18T07:59:04.048Z,99984.08
2018-08-18T08:01:32.979Z,99985.69
2018-08-18T08:04:02.177Z,99984.25
2018-08-18T08:06:31.204Z,99986.47
2018-08-18T08:09:00.455Z,99985.58
2018-08-18T08:11:29.516Z,99986.23
2018-08-18T08:13:58.451Z,99984.97
2018-08-18T08:16:27.453Z,99981.53
2018-08-18T08:18:56.448Z,99978.86
2018-08-18T08:21:25.522Z,99977.53
2018-08-18T08:23:55.578Z,99972.33
2018-08-18T08:26:24.608Z,99975.72
2018-08-18T08:28:53.613Z,99968.98
2018-08-18T08:31:22.611Z,99973.64
2018-08-18T08:33:51.660Z,99961.19
2018-08-18T08:36:20.719Z,99959.95
2018-08-18T08:38:53.890Z,99953.61
2018-08-18T08:41:24.739Z,99951.66
2018-08-18T08:43:53.717Z,99948.93
2018-08-18T08:46:22.917Z,99948.42
2018-08-18T08:48:54.651Z,99950.28
2018-08-18T08:51:23.868Z,99944.18
2018-08-18T08:53:54.131Z,99946.23
2018-08-18T08:56:39.835Z,99946.98
2018-08-18T08:59:08.810Z,99942.86
2018-08-18T09:01:37.812Z,99945.94
2018-08-18T09:04:06.900Z,99940.91
2018-08-18T09:06:40.844Z,99936.23
2018-08-18T09:09:09.845Z,99938.11
2018-08-18T09:11:38.771Z,99940.37
2018-08-18T09:14:08.891Z,99936.81
2018-08-18T09:16:37.908Z,99938.09
2018-08-18T09:19:06.961Z,99935.05
2018-08-18T09:21:41.463Z,99934.94
2018-08-18T09:24:10.572Z,99934.76
2018-08-18T09:26:44.752Z,99927.86
2018-08-18T09:29:14.628Z,99931.53
2018-08-18T09:31:44.619Z,99931.69
2018-08-18T09:34:13.555Z,99924.37
2018-08-18T09:36:43.204Z,99932.27
2018-08-18T09:39:23.338Z,99933.94
2018-08-18T09:41:52.457Z,99928.69
2018-08-18T09:44:31.540Z,99923.09
2018-08-18T09:47:00.516Z,99919.58
2018-08-18T09:49:30.816Z,99919.55
2018-08-18T09:52:00.525Z,99919.92
2018-08-18T09:54:29.721Z,99921.12
2018-08-18T09:56:59.392Z,99917.42
2018-08-18T09:59:29.027Z,99916.36
2018-08-18T10:01:58.041Z,99917.75
2018-08-18T10:04:27.056Z,99917.16
2018-08-18T10:06:56.647Z,99917.44
2018-08-18T10:09:25.735Z,99919.67
2018-08-18T10:11:54.988Z,99909.16
2018-08-18T10:14:23.996Z,99912.09
2018-08-18T10:16:52.963Z,99905.80
2018-08-18T10:19:21.962Z,99910.61
2018-08-18T10:21:51.030Z,99905.54
2018-08-18T10:24:19.992Z,99907.37
2018-08-18T10:26:54.120Z,99904.45
2018-08-18T10:29:24.292Z,99902.36
2018-08-18T10:31:58.333Z,99901.45
2018-08-18T10:34:28.586Z,99895.77
2018-08-18T10:37:06.492Z,99894.28
2018-08-18T10:39:36.501Z,99885.00
2018-08-18T10:42:08.938Z,99885.27
2018-08-18T10:44:37.916Z,99884.73
2018-08-18T10:47:11.728Z,99886.19
2018-08-18T10:49:51.707Z,99890.39
2018-08-18T10:52:32.670Z,99878.61
2018-08-18T10:55:04.668Z,99877.33
2018-08-18T10:57:45.709Z,99882.55
2018-08-18T11:00:19.072Z,99884.57
2018-08-18T11:02:50.439Z,99878.26
2018-08-18T11:05:19.941Z,99876.23
2018-08-18T11:07:57.057Z,99872.45
2018-08-18T11:10:27.956Z,99865.53
2018-08-18T11:12:56.885Z,99873.15
2018-08-18T11:15:26.068Z,99868.59
2018-08-18T11:17:55.355Z,99866.13
2018-08-18T11:20:26.837Z,99869.50
2018-08-18T11:23:04.227Z,99865.78
2018-08-18T11:26:04.876Z,99859.42
2018-08-18T11:28:33.934Z,99864.34
2018-08-18T11:31:03.008Z,99863.27
2018-08-18T11:33:39.413Z,99870.24
2018-08-18T11:36:09.602Z,99859.34
2018-08-18T11:38:38.669Z,99859.58
2018-08-18T11:41:09.875Z,99858.97
2018-08-18T11:43:46.301Z,99853.42
2018-08-18T11:46:15.291Z,99850.54
2018-08-18T11:48:44.489Z,99848.75
2018-08-18T11:51:13.422Z,99850.85
2018-08-18T11:53:54.707Z,99850.14
2018-08-18T11:56:23.717Z,99850.88
2018-08-18T11:59:03.557Z,99841.13
2018-08-18T12:01:36.993Z,99847.85
2018-08-18T12:04:06.072Z,99840.42
2018-08-18T12:06:35.108Z,99840.57
2018-08-18T12:09:05.014Z,99848.28
2018-08-18T12:11:34.066Z,99838.20
2018-08-18T12:14:03.117Z,99845.41
2018-08-18T12:16:32.089Z,99842.53
2018-08-18T12:19:01.031Z,99842.80
2018-08-18T12:21:34.430Z,99837.85
2018-08-18T12:24:03.368Z,99843.87
2018-08-18T12:26:32.417Z,99838.08
2018-08-18T12:29:01.365Z,99837.41
2018-08-18T12:31:30.320Z,99837.73
2018-08-18T12:33:59.888Z,99829.44
2018-08-18T12:36:29.038Z,99826.11
2018-08-18T12:38:58.921Z,99825.34
2018-08-18T12:41:27.882Z,99818.70
2018-08-18T12:43:58.907Z,99817.65
2018-08-18T12:46:39.631Z,99819.73
2018-08-18T12:49:08.695Z,99814.39
2018-08-18T12:51:37.694Z,99808.45
2018-08-18T12:54:06.745Z,99804.67
2018-08-18T12:56:35.749Z,99806.74
2018-08-18T12:59:04.811Z,99807.17
2018-08-18T13:01:44.267Z,99798.23
2018-08-18T13:04:14.619Z,99799.62
2018-08-18T13:06:45.138Z,99792.80
2018-08-18T13:09:15.287Z,99783.33
2018-08-18T13:11:45.677Z,99779.03
2018-08-18T13:14:17.387Z,99774.88
2018-08-18T13:16:46.467Z,99777.50
2018-08-18T13:19:17.024Z,99774.14
2018-08-18T13:21:46.052Z,99774.18
2018-08-18T13:24:15.159Z,99769.32
2018-08-18T13:26:44.116Z,99774.00
2018-08-18T13:29:13.080Z,99766.23
2018-08-18T13:31:42.984Z,99765.28
2018-08-18T13:34:13.580Z,99753.91
2018-08-18T13:36:43.734Z,99761.84
2018-08-18T13:39:17.363Z,99767.83
2018-08-18T13:41:47.155Z,99768.55
2018-08-18T13:44:37.889Z,99762.98
2018-08-18T13:47:06.958Z,99762.16
2018-08-18T13:49:35.970Z,99768.88
2018-08-18T13:52:05.005Z,99760.48
2018-08-18T13:54:34.994Z,99753.14
2018-08-18T13:57:04.032Z,99748.33
2018-08-18T13:59:47.933Z,99740.98
2018-08-18T14:02:17.095Z,99742.13
2018-08-18T14:04:46.054Z,99746.75
2018-08-18T14:07:15.144Z,99746.44
2018-08-18T14:09:48.985Z,99748.86
2018-08-18T14:12:18.824Z,99733.80
2018-08-18T14:14:48.508Z,99736.63
2018-08-18T14:17:19.744Z,99737.38
2018-08-18T14:19:49.096Z,99730.08
2018-08-18T14:22:19.756Z,99733.85
2018-08-18T14:24:48.720Z,99725.65
2018-08-18T14:27:20.191Z,99727.23
2018-08-18T14:29:49.200Z,99728.56
2018-08-18T14:32:23.364Z,99723.72
2018-08-18T14:35:02.259Z,99725.03
2018-08-18T14:37:31.257Z,99732.96
2018-08-18T14:40:00.305Z,99728.44
2018-08-18T14:42:29.375Z,99726.31
2018-08-18T14:44:59.549Z,99733.52
2018-08-18T14:47:28.513Z,99743.53
2018-08-18T14:50:12.665Z,99752.99
2018-08-18T14:52:42.431Z,99793.86
2018-08-18T14:55:11.429Z,99822.00
2018-08-18T14:57:46.592Z,99830.09
2018-08-18T15:00:15.573Z,99832.73
2018-08-18T15:02:44.566Z,99841.30
2018-08-18T15:05:13.520Z,99831.76
2018-08-18T15:07:46.512Z,99826.32
2018-08-18T15:10:30.691Z,99844.95
2018-08-18T15:13:00.516Z,99840.27
2018-08-18T15:15:30.500Z,99829.32
2018-08-18T15:18:05.784Z,99832.31
2018-08-18T15:20:36.116Z,99832.16
2018-08-18T15:23:05.982Z,99846.73
2018-08-18T15:25:35.917Z,99888.37
2018-08-18T15:28:06.250Z,99870.86
2018-08-18T15:30:36.596Z,99875.70
2018-08-18T15:33:05.974Z,99877.02
2018-08-18T15:35:38.346Z,99856.15
2018-08-18T15:38:08.356Z,99842.48
2018-08-18T15:40:37.349Z,99826.20
2018-08-18T15:43:06.358Z,99802.82
2018-08-18T15:45:47.187Z,99783.41
2018-08-18T15:48:16.212Z,99770.55
2018-08-18T15:50:45.188Z,99769.73
2018-08-18T15:53:14.165Z,99766.98
2018-08-18T15:55:43.297Z,99759.59
2018-08-18T15:58:12.268Z,99763.17
2018-08-18T16:00:42.145Z,99770.30
2018-08-18T16:03:11.492Z,99766.20
2018-08-18T16:05:40.454Z,99773.16
2018-08-18T16:08:09.505Z,99779.59
2018-08-18T16:10:38.548Z,99790.39
2018-08-18T16:13:07.740Z,99798.90
2018-08-18T16:15:36.890Z,99801.34
2018-08-18T16:18:05.892Z,99809.52
2018-08-18T16:20:34.869Z,99810.64
2018-08-18T16:23:04.495Z,99815.58
2018-08-18T16:25:37.672Z,99839.94
2018-08-18T16:28:07.531Z,99837.16
2018-08-18T16:30:37.108Z,99842.73
2018-08-18T16:33:14.648Z,99855.69
2018-08-18T16:35:44.827Z,99860.88
2018-08-18T16:38:13.846Z,99864.44
2018-08-18T16:40:43.033Z,99866.09
2018-08-18T16:43:14.204Z,99869.39
2018-08-18T16:45:43.215Z,99866.44
2018-08-18T16:48:13.504Z,99872.50
2018-08-18T16:50:43.096Z,99866.97
2018-08-18T16:53:13.355Z,99866.97
2018-08-18T16:55:45.404Z,99876.27
2018-08-18T16:58:14.387Z,99870.80
2018-08-18T17:00:57.880Z,99870.41
2018-08-18T17:03:34.358Z,99866.02
2018-08-18T17:06:05.289Z,99863.22
2018-08-18T17:08:34.244Z,99869.41
2018-08-18T17:11:03.192Z,99869.34
2018-08-18T17:13:34.398Z,99867.02
2018-08-18T17:16:03.839Z,99873.22
2018-08-18T17:18:32.969Z,99880.80
2018-08-18T17:21:03.105Z,99881.19
2018-08-18T17:23:33.394Z,99873.20
2018-08-18T17:26:02.504Z,99885.72
2018-08-18T17:28:32.274Z,99882.88
2018-08-18T17:31:02.738Z,99887.22
2018-08-18T17:33:32.299Z,99886.39
2018-08-18T17:36:01.321Z,99883.66
2018-08-18T17:38:30.421Z,99875.10
2018-08-18T17:40:59.378Z,99879.02
2018-08-18T17:43:28.428Z,99885.86
2018-08-18T17:45:58.603Z,99883.45
2018-08-18T17:48:28.893Z,99886.75
2018-08-18T17:50:57.892Z,99889.71
2018-08-18T17:53:26.839Z,99890.25
2018-08-18T17:56:00.933Z,99889.47
2018-08-18T17:58:29.960Z,99901.78
2018-08-18T18:00:59.025Z,99910.53
2018-08-18T18:03:28.029Z,99913.22
2018-08-18T18:05:57.588Z,99919.94
2018-08-18T18:08:26.844Z,99926.14
2018-08-18T18:10:55.840Z,99932.13
2018-08-18T18:13:27.116Z,99940.34
2018-08-18T18:15:56.197Z,99937.55
2018-08-18T18:18:30.778Z,99934.46
2018-08-18T18:20:59.857Z,99937.42
2018-08-18T18:23:28.797Z,99949.56
2018-08-18T18:25:57.861Z,99960.19
2018-08-18T18:28:26.869Z,99961.84
2018-08-18T18:30:55.862Z,99953.67
2018-08-18T18:33:24.881Z,99956.86
2018-08-18T18:35:53.814Z,99946.08
2018-08-18T18:38:22.830Z,99954.79
2018-08-18T18:40:51.820Z,99956.63
2018-08-18T18:43:20.771Z,99962.31
2018-08-18T18:45:49.828Z,99960.06
2018-08-18T18:48:18.885Z,99962.31
2018-08-18T18:50:49.233Z,99965.08
2018-08-18T18:53:18.244Z,99969.72
2018-08-18T18:55:54.696Z,99972.95
2018-08-18T18:58:23.644Z,99976.17
2018-08-18T19:01:01.442Z,99979.08
2018-08-18T19:03:30.688Z,99973.59
2018-08-18T19:05:59.696Z,99974.89
2018-08-18T19:08:28.713Z,99974.53
2018-08-18T19:10:57.789Z,99976.44
2018-08-18T19:13:27.836Z,99976.44
2018-08-18T19:15:56.790Z,99977.51
2018-08-18T19:18:25.829Z,99974.69
2018-08-18T19:20:54.873Z,99978.19
2018-08-18T19:23:23.847Z,99983.66
2018-08-18T19:25:52.881Z,99980.06
2018-08-18T19:28:23.063Z,99993.91
2018-08-18T19:30:52.153Z,99997.91
2018-08-18T19:33:21.537Z,100003.37
2018-08-18T19:35:51.936Z,99999.75
2018-08-18T19:38:22.036Z,99993.38
2018-08-18T19:40:54.027Z,99994.98
2018-08-18T19:43:24.267Z,99986.39
2018-08-18T19:45:53.752Z,99992.09
2018-08-18T19:48:24.105Z,99984.27
2018-08-18T19:50:58.171Z,99982.30
2018-08-18T19:53:30.069Z,99984.56
2018-08-18T19:56:00.028Z,99976.55
2018-08-18T19:58:29.585Z,99975.81
2018-08-18T20:00:58.596Z,99977.34
2018-08-18T20:03:27.837Z,99979.08
2018-08-18T20:05:56.785Z,99985.34
2018-08-18T20:08:27.664Z,99998.19
2018-08-18T20:11:02.974Z,100001.83
2018-08-18T20:13:32.821Z,99999.45
2018-08-18T20:16:03.188Z,100004.52
2018-08-18T20:18:33.311Z,100007.86
2018-08-18T20:21:02.313Z,100018.53
2018-08-18T20:23:31.311Z,100018.88
2018-08-18T20:26:01.673Z,100021.27
2018-08-18T20:28:30.684Z,100021.66
2018-08-18T20:30:59.711Z,100031.20
2018-08-18T20:33:28.645Z,100029.08
2018-08-18T20:35:57.710Z,100028.66
2018-08-18T20:38:30.967Z,100028.44
2018-08-18T20:40:59.976Z,100024.65
2018-08-18T20:43:29.468Z,100032.00
2018-08-18T20:45:58.434Z,100035.33
2018-08-18T20:48:27.516Z,100034.91
2018-08-18T20:50:56.453Z,100032.64
2018-08-18T20:53:25.817Z,100032.83
2018-08-18T20:55:59.660Z,100038.85
2018-08-18T20:58:29.223Z,100029.48
2018-08-18T21:00:58.153Z,100037.34
2018-08-18T21:03:41.040Z,100045.98
2018-08-18T21:06:10.097Z,100047.52
2018-08-18T21:08:39.048Z,100045.25
2018-08-18T21:11:08.069Z,100038.13
2018-08-18T21:13:37.630Z,100041.58
2018-08-18T21:16:06.780Z,100044.48
2018-08-18T21:18:35.716Z,100039.48
2018-08-18T21:21:38.840Z,100047.02
2018-08-18T21:24:07.792Z,100051.91
2018-08-18T21:26:36.845Z,100054.36
2018-08-18T21:29:05.858Z,100055.72
2018-08-18T21:31:36.165Z,100054.94
2018-08-18T21:34:06.444Z,100052.89
2018-08-18T21:36:35.672Z,100054.64
2018-08-18T21:39:08.536Z,100042.94
2018-08-18T21:41:38.409Z,100045.09
2018-08-18T21:44:08.873Z,100053.12
2018-08-18T21:46:38.259Z,100053.57
2018-08-18T21:49:07.438Z,100061.63
2018-08-18T21:51:36.444Z,100057.23
2018-08-18T21:54:05.388Z,100049.20
2018-08-18T21:56:40.648Z,100051.04
2018-08-18T21:59:11.209Z,100056.94
2018-08-18T22:01:40.184Z,100056.73
2018-08-18T22:04:09.816Z,100058.77
2018-08-18T22:06:39.108Z,100067.47
2018-08-18T22:09:22.404Z,100069.09
2018-08-18T22:11:51.660Z,100077.80
2018-08-18T22:14:20.780Z,100074.02
2018-08-18T22:16:55.761Z,100077.27
2018-08-18T22:19:25.044Z,100085.28
2018-08-18T22:21:54.260Z,100081.94
2018-08-18T22:24:23.301Z,100078.46
2018-08-18T22:26:52.319Z,100078.02
2018-08-18T22:29:25.237Z,100086.32
2018-08-18T22:31:54.441Z,100083.11
2018-08-18T22:34:23.428Z,100086.58
2018-08-18T22:36:58.851Z,100084.91
2018-08-18T22:39:27.791Z,100080.30
2018-08-18T22:41:56.730Z,100077.66
2018-08-18T22:44:25.732Z,100080.20
2018-08-18T22:46:54.793Z,100081.31
2018-08-18T22:49:23.821Z,100075.42
2018-08-18T22:51:52.817Z,100082.84
2018-08-18T22:54:21.844Z,100080.03
2018-08-18T22:56:55.978Z,100079.03
2018-08-18T22:59:25.139Z,100079.07
2018-08-18T23:01:54.095Z,100085.08
2018-08-18T23:04:29.837Z,100086.48
2018-08-18T23:06:59.477Z,100089.89
2018-08-18T23:09:29.265Z,100092.14
2018-08-18T23:12:02.816Z,100087.53
2018-08-18T23:14:34.807Z,100090.20
2018-08-18T23:17:04.067Z,100093.14
2018-08-18T23:19:33.824Z,100096.39
2018-08-18T23:22:03.440Z,100097.56
2018-08-18T23:24:35.640Z,100090.98
2018-08-18T23:27:05.796Z,100097.78
2018-08-18T23:29:34.918Z,100098.34
2018-08-18T23:32:13.440Z,100102.70
2018-08-18T23:34:42.392Z,100108.98
2018-08-18T23:37:17.401Z,100104.89
2018-08-18T23:39:46.409Z,100103.78
2018-08-18T23:42:18.116Z,100107.56
2018-08-18T23:44:47.565Z,100111.98
2018-08-18T23:47:16.669Z,100110.84
2018-08-18T23:49:45.813Z,100101.16
2018-08-18T23:52:14.810Z,100098.44
2018-08-18T23:54:43.773Z,100089.66
2018-08-18T23:57:13.203Z,100087.67
2018-08-18T23:59:42.219Z,100081.61
